DLH105L LOWW-LKPR
Flight info
| Callsign | DLH105L |
|---|---|
| Flight time | 0h 28m |
| Altitude | 22000 |
| Route | LANUX DCT VLM |
| Aircraft | A343/H-SDE2E3FGHIJ4J5M1RWXY/LB1D1 |
Departure
| Time | 2026-04-22 20:29 |
|---|---|
| Airport | Vienna International Airport (LOWW) |
Arrival
| Time | 2026-04-22 20:58 |
|---|---|
| Airport | Václav Havel Airport Prague (LKPR) |
| Time | Latitude | Longitude | Altitude | Speed | Heading |
|---|---|---|---|---|---|
| 2026-04-22 20:11 | 48.11706 | 16.56815 | 612 ft | 0 kts | 24° |
| 2026-04-22 20:17 | 48.11697 | 16.56808 | 627 ft | 3 kts | 24° |
| 2026-04-22 20:17 | 48.11680 | 16.56797 | 620 ft | 3 kts | 24° |
| 2026-04-22 20:17 | 48.11667 | 16.56787 | 627 ft | 0 kts | 18° |
| 2026-04-22 20:18 | 48.11650 | 16.56780 | 627 ft | 3 kts | 355° |
| 2026-04-22 20:18 | 48.11632 | 16.56782 | 624 ft | 3 kts | 351° |
| 2026-04-22 20:18 | 48.11615 | 16.56789 | 621 ft | 0 kts | 310° |
| 2026-04-22 20:19 | 48.11616 | 16.56789 | 621 ft | 1 kts | 310° |
| 2026-04-22 20:20 | 48.11624 | 16.56770 | 627 ft | 4 kts | 303° |
| 2026-04-22 20:20 | 48.11644 | 16.56717 | 623 ft | 9 kts | 297° |
| 2026-04-22 20:20 | 48.11677 | 16.56614 | 623 ft | 13 kts | 295° |
| 2026-04-22 20:20 | 48.11721 | 16.56481 | 627 ft | 16 kts | 296° |
| 2026-04-22 20:21 | 48.11752 | 16.56332 | 619 ft | 11 kts | 255° |
| 2026-04-22 20:21 | 48.11698 | 16.56273 | 624 ft | 13 kts | 207° |
| 2026-04-22 20:21 | 48.11591 | 16.56182 | 621 ft | 14 kts | 194° |
| 2026-04-22 20:21 | 48.11535 | 16.56269 | 623 ft | 22 kts | 115° |
| 2026-04-22 20:22 | 48.11445 | 16.56552 | 623 ft | 33 kts | 115° |
| 2026-04-22 20:22 | 48.11344 | 16.56863 | 619 ft | 33 kts | 116° |
| 2026-04-22 20:22 | 48.11241 | 16.57177 | 627 ft | 34 kts | 116° |
| 2026-04-22 20:22 | 48.11138 | 16.57493 | 624 ft | 34 kts | 116° |
| 2026-04-22 20:23 | 48.11056 | 16.57648 | 624 ft | 9 kts | 173° |
| 2026-04-22 20:23 | 48.11025 | 16.57632 | 620 ft | 0 kts | 203° |
| 2026-04-22 20:27 | 48.11017 | 16.57626 | 620 ft | 4 kts | 203° |
| 2026-04-22 20:27 | 48.10973 | 16.57598 | 627 ft | 9 kts | 204° |
| 2026-04-22 20:27 | 48.10926 | 16.57531 | 627 ft | 10 kts | 250° |
| 2026-04-22 20:28 | 48.10943 | 16.57447 | 624 ft | 9 kts | 297° |
| 2026-04-22 20:28 | 48.10972 | 16.57361 | 625 ft | 0 kts | 296° |
| 2026-04-22 20:28 | 48.10972 | 16.57359 | 624 ft | 0 kts | 296° |
| 2026-04-22 20:28 | 48.11023 | 16.57205 | 619 ft | 54 kts | 296° |
| 2026-04-22 20:29 | 48.11321 | 16.56291 | 628 ft | 138 kts | 296° |
| 2026-04-22 20:29 | 48.11791 | 16.54822 | 1156 ft | 164 kts | 298° |
| 2026-04-22 20:29 | 48.11867 | 16.53165 | 2289 ft | 165 kts | 254° |
| 2026-04-22 20:29 | 48.11125 | 16.51864 | 3195 ft | 167 kts | 226° |
| 2026-04-22 20:30 | 48.10193 | 16.50676 | 3753 ft | 185 kts | 227° |
| 2026-04-22 20:30 | 48.09205 | 16.49297 | 4237 ft | 206 kts | 227° |
| 2026-04-22 20:30 | 48.08255 | 16.47659 | 4928 ft | 210 kts | 245° |
| 2026-04-22 20:30 | 48.07875 | 16.45651 | 5866 ft | 196 kts | 276° |
| 2026-04-22 20:31 | 48.08278 | 16.43806 | 6684 ft | 188 kts | 311° |
| 2026-04-22 20:31 | 48.09283 | 16.42454 | 7167 ft | 203 kts | 327° |
| 2026-04-22 20:31 | 48.10538 | 16.41207 | 7558 ft | 232 kts | 329° |
| 2026-04-22 20:31 | 48.11959 | 16.39837 | 8197 ft | 250 kts | 329° |
| 2026-04-22 20:32 | 48.13444 | 16.38382 | 9071 ft | 260 kts | 329° |
| 2026-04-22 20:32 | 48.14980 | 16.36861 | 10019 ft | 268 kts | 329° |
| 2026-04-22 20:32 | 48.16528 | 16.35318 | 10871 ft | 273 kts | 329° |
| 2026-04-22 20:32 | 48.18123 | 16.33722 | 11748 ft | 279 kts | 329° |
| 2026-04-22 20:33 | 48.19776 | 16.32069 | 12347 ft | 294 kts | 329° |
| 2026-04-22 20:33 | 48.21538 | 16.30306 | 12721 ft | 315 kts | 329° |
| 2026-04-22 20:33 | 48.23424 | 16.28416 | 13106 ft | 335 kts | 329° |
| 2026-04-22 20:33 | 48.25417 | 16.26414 | 13482 ft | 353 kts | 329° |
| 2026-04-22 20:34 | 48.27491 | 16.24323 | 14119 ft | 363 kts | 329° |
| 2026-04-22 20:34 | 48.29581 | 16.22212 | 14820 ft | 369 kts | 329° |
| 2026-04-22 20:34 | 48.31724 | 16.20047 | 15542 ft | 374 kts | 329° |
| 2026-04-22 20:34 | 48.33905 | 16.17842 | 16291 ft | 379 kts | 329° |
| 2026-04-22 20:35 | 48.36105 | 16.15617 | 17048 ft | 384 kts | 329° |
| 2026-04-22 20:35 | 48.38338 | 16.13360 | 17790 ft | 388 kts | 330° |
| 2026-04-22 20:35 | 48.40671 | 16.11300 | 18492 ft | 391 kts | 334° |
| 2026-04-22 20:35 | 48.43063 | 16.09255 | 19014 ft | 399 kts | 334° |
| 2026-04-22 20:36 | 48.45505 | 16.07158 | 19552 ft | 406 kts | 334° |
| 2026-04-22 20:36 | 48.47972 | 16.05036 | 20141 ft | 411 kts | 334° |
| 2026-04-22 20:36 | 48.50471 | 16.02882 | 20741 ft | 416 kts | 334° |
| 2026-04-22 20:36 | 48.53000 | 16.00700 | 21338 ft | 420 kts | 334° |
| 2026-04-22 20:37 | 48.55550 | 15.98498 | 21911 ft | 425 kts | 334° |
| 2026-04-22 20:37 | 48.58128 | 15.96269 | 22189 ft | 427 kts | 334° |
| 2026-04-22 20:37 | 48.60671 | 15.94067 | 22216 ft | 428 kts | 334° |
| 2026-04-22 20:37 | 48.63258 | 15.91825 | 22215 ft | 429 kts | 334° |
| 2026-04-22 20:38 | 48.65848 | 15.89577 | 22212 ft | 429 kts | 334° |
| 2026-04-22 20:38 | 48.68445 | 15.87322 | 22214 ft | 430 kts | 334° |
| 2026-04-22 20:38 | 48.71041 | 15.85063 | 22204 ft | 430 kts | 334° |
| 2026-04-22 20:38 | 48.73636 | 15.82805 | 22218 ft | 431 kts | 334° |
| 2026-04-22 20:39 | 48.76242 | 15.80533 | 22219 ft | 431 kts | 334° |
| 2026-04-22 20:39 | 48.78841 | 15.78265 | 22212 ft | 431 kts | 334° |
| 2026-04-22 20:39 | 48.81444 | 15.75990 | 22218 ft | 431 kts | 334° |
| 2026-04-22 20:39 | 48.84043 | 15.73716 | 22230 ft | 432 kts | 334° |
| 2026-04-22 20:40 | 48.86649 | 15.71434 | 22227 ft | 432 kts | 334° |
| 2026-04-22 20:40 | 48.89250 | 15.69152 | 22227 ft | 432 kts | 334° |
| 2026-04-22 20:40 | 48.91852 | 15.66867 | 22224 ft | 432 kts | 335° |
| 2026-04-22 20:40 | 48.94456 | 15.64579 | 22224 ft | 433 kts | 335° |
| 2026-04-22 20:41 | 48.97060 | 15.62275 | 22232 ft | 433 kts | 334° |
| 2026-04-22 20:41 | 48.99627 | 15.59848 | 22233 ft | 434 kts | 332° |
| 2026-04-22 20:41 | 49.02143 | 15.57418 | 22218 ft | 434 kts | 332° |
| 2026-04-22 20:41 | 49.04699 | 15.54953 | 22230 ft | 435 kts | 332° |
| 2026-04-22 20:42 | 49.07253 | 15.52495 | 22231 ft | 435 kts | 332° |
| 2026-04-22 20:42 | 49.09815 | 15.50034 | 22234 ft | 435 kts | 332° |
| 2026-04-22 20:42 | 49.12378 | 15.47573 | 22233 ft | 435 kts | 333° |
| 2026-04-22 20:42 | 49.14940 | 15.45112 | 22233 ft | 435 kts | 333° |
| 2026-04-22 20:43 | 49.17498 | 15.42653 | 22230 ft | 435 kts | 333° |
| 2026-04-22 20:43 | 49.20063 | 15.40184 | 22238 ft | 435 kts | 333° |
| 2026-04-22 20:43 | 49.22624 | 15.37718 | 22237 ft | 435 kts | 333° |
| 2026-04-22 20:43 | 49.25180 | 15.35253 | 22235 ft | 435 kts | 333° |
| 2026-04-22 20:44 | 49.27743 | 15.32778 | 22236 ft | 435 kts | 333° |
| 2026-04-22 20:44 | 49.30305 | 15.30302 | 22235 ft | 435 kts | 333° |
| 2026-04-22 20:44 | 49.32866 | 15.27824 | 22228 ft | 435 kts | 332° |
| 2026-04-22 20:44 | 49.35426 | 15.25342 | 22238 ft | 436 kts | 332° |
| 2026-04-22 20:45 | 49.37989 | 15.22855 | 22239 ft | 436 kts | 332° |
| 2026-04-22 20:45 | 49.40551 | 15.20366 | 22237 ft | 436 kts | 332° |
| 2026-04-22 20:45 | 49.43109 | 15.17878 | 22220 ft | 435 kts | 332° |
| 2026-04-22 20:45 | 49.45613 | 15.15436 | 21968 ft | 428 kts | 332° |
| 2026-04-22 20:46 | 49.50584 | 15.10582 | 20523 ft | 422 kts | 332° |
| 2026-04-22 20:46 | 49.53052 | 15.08170 | 19671 ft | 414 kts | 332° |
| 2026-04-22 20:46 | 49.55427 | 15.05839 | 18815 ft | 402 kts | 332° |
| 2026-04-22 20:47 | 49.57801 | 15.03516 | 17949 ft | 405 kts | 332° |
| 2026-04-22 20:47 | 49.60155 | 15.01208 | 17030 ft | 396 kts | 331° |
| 2026-04-22 20:47 | 49.62458 | 14.98946 | 16104 ft | 390 kts | 331° |
| 2026-04-22 20:47 | 49.64729 | 14.96712 | 15216 ft | 383 kts | 331° |
| 2026-04-22 20:48 | 49.66966 | 14.94510 | 14360 ft | 377 kts | 331° |
| 2026-04-22 20:48 | 49.69158 | 14.92349 | 13534 ft | 371 kts | 331° |
| 2026-04-22 20:48 | 49.71323 | 14.90215 | 12714 ft | 364 kts | 330° |
| 2026-04-22 20:48 | 49.73430 | 14.88133 | 11948 ft | 359 kts | 330° |
| 2026-04-22 20:49 | 49.75534 | 14.86056 | 11181 ft | 360 kts | 330° |
| 2026-04-22 20:49 | 49.77646 | 14.83969 | 10462 ft | 357 kts | 330° |
| 2026-04-22 20:49 | 49.79669 | 14.81962 | 9703 ft | 347 kts | 330° |
| 2026-04-22 20:49 | 49.81707 | 14.79942 | 8904 ft | 347 kts | 329° |
| 2026-04-22 20:50 | 49.83719 | 14.77946 | 8128 ft | 342 kts | 329° |
| 2026-04-22 20:50 | 49.85648 | 14.75790 | 7355 ft | 342 kts | 319° |
| 2026-04-22 20:50 | 49.87225 | 14.73014 | 6599 ft | 341 kts | 310° |
| 2026-04-22 20:50 | 49.88630 | 14.70158 | 5815 ft | 327 kts | 309° |
| 2026-04-22 20:51 | 49.89996 | 14.67336 | 5057 ft | 328 kts | 309° |
| 2026-04-22 20:51 | 49.91369 | 14.64512 | 4389 ft | 325 kts | 309° |
| 2026-04-22 20:51 | 49.92681 | 14.61813 | 4054 ft | 297 kts | 309° |
| 2026-04-22 20:51 | 49.93846 | 14.59446 | 3979 ft | 255 kts | 310° |
| 2026-04-22 20:52 | 49.94844 | 14.57429 | 3974 ft | 225 kts | 310° |
| 2026-04-22 20:52 | 49.95531 | 14.56020 | 3971 ft | 212 kts | 310° |
| 2026-04-22 20:52 | 49.96253 | 14.54536 | 3981 ft | 204 kts | 310° |
| 2026-04-22 20:52 | 49.97147 | 14.52712 | 3993 ft | 217 kts | 310° |
| 2026-04-22 20:53 | 49.98065 | 14.50837 | 3995 ft | 219 kts | 310° |
| 2026-04-22 20:53 | 49.98982 | 14.48952 | 3990 ft | 218 kts | 310° |
| 2026-04-22 20:53 | 49.99887 | 14.47084 | 3985 ft | 212 kts | 310° |
| 2026-04-22 20:53 | 50.00746 | 14.45304 | 3988 ft | 197 kts | 310° |
| 2026-04-22 20:54 | 50.01527 | 14.43687 | 3925 ft | 177 kts | 310° |
| 2026-04-22 20:54 | 50.02253 | 14.42194 | 3572 ft | 170 kts | 310° |
| 2026-04-22 20:54 | 50.02933 | 14.40790 | 3325 ft | 158 kts | 311° |
| 2026-04-22 20:54 | 50.03566 | 14.39480 | 3111 ft | 145 kts | 311° |
| 2026-04-22 20:55 | 50.04152 | 14.38272 | 2902 ft | 134 kts | 312° |
| 2026-04-22 20:55 | 50.04678 | 14.37184 | 2769 ft | 124 kts | 312° |
| 2026-04-22 20:55 | 50.05206 | 14.36099 | 2573 ft | 125 kts | 312° |
| 2026-04-22 20:55 | 50.05729 | 14.35020 | 2409 ft | 125 kts | 311° |
| 2026-04-22 20:56 | 50.06254 | 14.33933 | 2244 ft | 127 kts | 311° |
| 2026-04-22 20:56 | 50.06781 | 14.32843 | 2049 ft | 125 kts | 310° |
| 2026-04-22 20:56 | 50.07309 | 14.31756 | 1860 ft | 126 kts | 310° |
| 2026-04-22 20:56 | 50.07839 | 14.30654 | 1700 ft | 128 kts | 308° |
| 2026-04-22 20:57 | 50.08366 | 14.29533 | 1474 ft | 128 kts | 310° |
| 2026-04-22 20:57 | 50.08896 | 14.28463 | 1313 ft | 124 kts | 309° |
| 2026-04-22 20:57 | 50.09421 | 14.27388 | 1218 ft | 121 kts | 309° |
| 2026-04-22 20:57 | 50.09856 | 14.26489 | 1208 ft | 86 kts | 307° |
| 2026-04-22 20:58 | 50.10155 | 14.25875 | 1192 ft | 48 kts | 307° |
| 2026-04-22 20:58 | 50.10311 | 14.25680 | 1190 ft | 27 kts | 343° |
| 2026-04-22 20:58 | 50.10478 | 14.25686 | 1182 ft | 18 kts | 34° |
| 2026-04-22 20:58 | 50.10498 | 14.25783 | 1179 ft | 11 kts | 94° |
| 2026-04-22 20:59 | 50.10513 | 14.25913 | 1177 ft | 14 kts | 74° |
| 2026-04-22 20:59 | 50.10527 | 14.26065 | 1175 ft | 15 kts | 80° |
| 2026-04-22 20:59 | 50.10543 | 14.26213 | 1176 ft | 13 kts | 70° |
| 2026-04-22 20:59 | 50.10584 | 14.26271 | 1174 ft | 5 kts | 35° |
| 2026-04-22 21:00 | 50.10586 | 14.26274 | 1174 ft | 0 kts | 35° |